Time;durP1;ratioP1;P1;durP2;ratioP2;P2;SDS_P1;SDS_P2;PMS_P1;PMS_P2;Temp;Humidity;BMP_temperature;BMP_pressure;BME280_temperature;BME280_humidity;BME280_pressure;Samples;Min_cycle;Max_cycle;Signal;HPM_P1;HPM_P2
2020/12/08 00:01:26;;;;;;;42.78;22.42;;;;;;;;;;5082919;28;20066;-82
2020/12/08 00:03:52;;;;;;;37.90;22.55;;;;;;;;;;5083682;28;20048;-82
2020/12/08 00:06:18;;;;;;;39.35;22.80;;;;;;;;;;5081647;28;20058;-82
2020/12/08 00:08:48;;;;;;;38.17;22.60;;;;;;;;;;5083624;28;20060;-82
2020/12/08 00:11:21;;;;;;;41.92;24.27;;;;;;;;;;5101318;28;20453;-82
2020/12/08 00:13:48;;;;;;;38.30;22.17;;;;;;;;;;5082636;28;20062;-82
2020/12/08 00:16:18;;;;;;;38.72;23.40;;;;;;;;;;5083438;28;20056;-82
2020/12/08 00:18:44;;;;;;;37.60;22.35;;;;;;;;;;5100198;28;20048;-82
2020/12/08 00:21:12;;;;;;;42.42;23.80;;;;;;;;;;5084378;28;20084;-82
2020/12/08 00:23:47;;;;;;;35.70;21.60;;;;;;;;;;5100203;28;20363;-82
2020/12/08 00:26:16;;;;;;;41.67;23.80;;;;;;;;;;5102011;28;20060;-82
2020/12/08 00:28:45;;;;;;;37.00;21.63;;;;;;;;;;5084356;28;20438;-82
2020/12/08 00:31:14;;;;;;;39.28;22.15;;;;;;;;;;5101641;28;20412;-82
2020/12/08 00:33:49;;;;;;;39.20;22.52;;;;;;;;;;5103406;28;20389;-82
2020/12/08 00:36:16;;;;;;;;;;;;;;;;;;5097874;28;20065;-82
2020/12/08 00:38:44;;;;;;;38.55;22.90;;;;;;;;;;5110659;28;20268;-82
2020/12/08 00:41:21;;;;;;;36.20;21.23;;;;;;;;;;5083563;28;20048;-82
2020/12/08 00:43:47;;;;;;;38.97;23.02;;;;;;;;;;5101960;28;20339;-82
2020/12/08 00:46:19;;;;;;;36.13;21.30;;;;;;;;;;5086180;28;20378;-82
2020/12/08 00:48:49;;;;;;;33.97;20.33;;;;;;;;;;5101864;28;20059;-82
2020/12/08 00:51:17;;;;;;;35.58;21.67;;;;;;;;;;5100676;28;20063;-82
2020/12/08 00:53:45;;;;;;;33.72;21.05;;;;;;;;;;5082051;28;20058;-82
2020/12/08 00:56:17;;;;;;;33.58;20.45;;;;;;;;;;5083280;28;20151;-82
2020/12/08 00:58:44;;;;;;;34.90;21.50;;;;;;;;;;5100807;28;20048;-82
2020/12/08 01:01:16;;;;;;;36.35;20.52;;;;;;;;;;5101638;28;20423;-82
2020/12/08 01:03:51;;;;;;;33.60;20.65;;;;;;;;;;5084883;28;20051;-82
2020/12/08 01:06:25;;;;;;;34.42;21.30;;;;;;;;;;5102426;28;20044;-82
2020/12/08 01:08:52;;;;;;;32.33;19.52;;;;;;;;;;5086403;28;20048;-83
2020/12/08 01:11:21;;;;;;;34.03;21.65;;;;;;;;;;5086583;28;20060;-82
2020/12/08 01:13:51;;;;;;;30.23;19.85;;;;;;;;;;5103293;28;20385;-82
2020/12/08 01:16:30;;;;;;;37.92;21.08;;;;;;;;;;5103993;28;20055;-82
2020/12/08 01:18:57;;;;;;;36.08;21.85;;;;;;;;;;5086315;28;20446;-82
2020/12/08 01:21:23;;;;;;;36.90;20.48;;;;;;;;;;5103063;28;20134;-82
2020/12/08 01:23:53;;;;;;;35.42;21.35;;;;;;;;;;5087308;28;20071;-82
2020/12/08 01:26:20;;;;;;;37.70;22.05;;;;;;;;;;5093938;28;20052;-82
2020/12/08 01:28:48;;;;;;;36.42;21.88;;;;;;;;;;5112002;28;20059;-82
2020/12/08 01:31:14;;;;;;;40.17;22.40;;;;;;;;;;5094568;28;20063;-82
2020/12/08 01:33:43;;;;;;;39.40;22.80;;;;;;;;;;5110570;28;20144;-83
2020/12/08 01:36:23;;;;;;;36.25;23.02;;;;;;;;;;5089508;28;20407;-83
2020/12/08 01:38:50;;;;;;;33.08;20.27;;;;;;;;;;5085979;28;20048;-82
2020/12/08 01:41:16;;;;;;;38.03;21.17;;;;;;;;;;5101159;28;20400;-83
2020/12/08 01:43:56;;;;;;;35.38;21.45;;;;;;;;;;5103033;28;20521;-82
2020/12/08 01:46:23;;;;;;;34.70;20.90;;;;;;;;;;5104525;28;20153;-82
2020/12/08 01:48:55;;;;;;;35.25;21.25;;;;;;;;;;5085734;28;20066;-82
2020/12/08 01:51:22;;;;;;;32.00;19.75;;;;;;;;;;5091386;28;20147;-82
2020/12/08 01:53:51;;;;;;;35.83;21.67;;;;;;;;;;5109255;28;20072;-83
2020/12/08 01:56:20;;;;;;;32.83;19.58;;;;;;;;;;5109396;28;20105;-83
2020/12/08 01:58:47;;;;;;;32.58;20.30;;;;;;;;;;5090773;28;20048;-83
2020/12/08 02:01:14;;;;;;;34.63;20.73;;;;;;;;;;5086598;28;20048;-83
2020/12/08 02:03:42;;;;;;;34.95;21.42;;;;;;;;;;5104670;28;20060;-83
2020/12/08 02:06:12;;;;;;;36.42;21.02;;;;;;;;;;5087144;28;20059;-82
2020/12/08 02:08:40;;;;;;;34.35;21.02;;;;;;;;;;5086984;28;20051;-82
2020/12/08 02:11:08;;;;;;;39.42;23.17;;;;;;;;;;5085732;28;20130;-82
2020/12/08 02:13:34;;;;;;;33.65;20.42;;;;;;;;;;5103733;28;20063;-82
2020/12/08 02:16:00;;;;;;;39.85;23.20;;;;;;;;;;5103219;28;20052;-82
2020/12/08 02:18:30;;;;;;;38.38;22.50;;;;;;;;;;5103973;28;20495;-82
2020/12/08 02:21:01;;;;;;;36.80;22.40;;;;;;;;;;5108477;28;20048;-82
2020/12/08 02:23:29;;;;;;;39.10;22.77;;;;;;;;;;5084814;28;20056;-82
2020/12/08 02:26:03;;;;;;;37.55;23.08;;;;;;;;;;5103368;28;20062;-82
2020/12/08 02:28:35;;;;;;;41.72;23.88;;;;;;;;;;5102935;28;20048;-82
2020/12/08 02:31:01;;;;;;;40.97;24.77;;;;;;;;;;5085978;28;20066;-82
2020/12/08 02:33:29;;;;;;;41.80;24.52;;;;;;;;;;5084986;28;20101;-82
2020/12/08 02:36:00;;;;;;;36.45;21.92;;;;;;;;;;5101908;28;20050;-82
2020/12/08 02:38:27;;;;;;;43.53;25.27;;;;;;;;;;5084779;28;20048;-82
2020/12/08 02:40:53;;;;;;;42.08;24.08;;;;;;;;;;5084091;28;20395;-82
2020/12/08 02:43:22;;;;;;;38.83;23.40;;;;;;;;;;5102313;28;20048;-82
2020/12/08 02:45:48;;;;;;;39.08;23.02;;;;;;;;;;5096508;28;20046;-82
2020/12/08 02:48:16;;;;;;;42.35;22.92;;;;;;;;;;5100876;28;20036;-82
2020/12/08 02:50:57;;;;;;;36.72;22.17;;;;;;;;;;5096554;28;20109;-83
2020/12/08 02:53:24;;;;;;;34.78;21.63;;;;;;;;;;5087519;28;20231;-83
2020/12/08 02:55:50;;;;;;;34.30;20.77;;;;;;;;;;5087210;28;20056;-82
2020/12/08 02:58:22;;;;;;;39.40;20.95;;;;;;;;;;5113550;28;20040;-81
2020/12/08 03:01:14;;;;;;;32.78;20.90;;;;;;;;;;5100503;28;20044;-82
2020/12/08 03:03:41;;;;;;;37.15;21.75;;;;;;;;;;5097459;28;20178;-83
2020/12/08 03:06:08;;;;;;;31.60;21.15;;;;;;;;;;5102063;28;20052;-82
2020/12/08 03:08:36;;;;;;;32.03;20.15;;;;;;;;;;5103024;28;20048;-83
2020/12/08 03:11:07;;;;;;;34.83;21.00;;;;;;;;;;5102840;28;20052;-82
2020/12/08 03:13:33;;;;;;;32.17;19.65;;;;;;;;;;5105217;28;20044;-82
2020/12/08 03:16:01;;;;;;;31.88;18.95;;;;;;;;;;5086945;28;20048;-83
2020/12/08 03:18:30;;;;;;;33.80;19.63;;;;;;;;;;5085493;28;20112;-84
2020/12/08 03:20:59;;;;;;;31.52;19.20;;;;;;;;;;5082241;28;20071;-83
2020/12/08 03:23:26;;;;;;;31.85;19.38;;;;;;;;;;5099393;28;20101;-84
2020/12/08 03:25:55;;;;;;;32.92;20.20;;;;;;;;;;5088397;28;20040;-84
2020/12/08 03:28:23;;;;;;;29.33;19.85;;;;;;;;;;5114612;28;20078;-84
2020/12/08 03:30:52;;;;;;;31.17;19.98;;;;;;;;;;5086813;28;20055;-84
2020/12/08 03:33:18;;;;;;;31.27;20.25;;;;;;;;;;5098627;28;20059;-84
2020/12/08 03:35:44;;;;;;;29.48;18.60;;;;;;;;;;5080228;28;20079;-83
2020/12/08 03:38:17;;;;;;;28.02;18.63;;;;;;;;;;5080271;28;20048;-83
2020/12/08 03:40:45;;;;;;;27.27;17.65;;;;;;;;;;5079593;28;20234;-84
2020/12/08 03:43:12;;;;;;;28.63;18.02;;;;;;;;;;5097278;28;20075;-83
2020/12/08 03:45:38;;;;;;;29.88;17.73;;;;;;;;;;5097584;28;20144;-83
2020/12/08 03:48:04;;;;;;;25.80;18.13;;;;;;;;;;5097160;28;20048;-83
2020/12/08 03:50:33;;;;;;;33.85;17.25;;;;;;;;;;5098145;28;20059;-83
2020/12/08 03:53:01;;;;;;;28.45;18.27;;;;;;;;;;5078464;28;20519;-83
2020/12/08 03:55:27;;;;;;;28.63;18.40;;;;;;;;;;5078735;28;20040;-84
2020/12/08 03:57:53;;;;;;;26.52;17.50;;;;;;;;;;5096297;28;20091;-83
2020/12/08 04:00:25;;;;;;;28.50;18.88;;;;;;;;;;5096190;28;20430;-84
2020/12/08 04:02:52;;;;;;;27.80;17.50;;;;;;;;;;5079005;28;20056;-84
2020/12/08 04:05:18;;;;;;;27.80;18.63;;;;;;;;;;5096623;28;20059;-83
2020/12/08 04:07:46;;;;;;;28.83;18.23;;;;;;;;;;5095132;28;20202;-83
2020/12/08 04:10:16;;;;;;;28.00;18.05;;;;;;;;;;5096929;28;20052;-84
2020/12/08 04:12:46;;;;;;;26.40;16.73;;;;;;;;;;5098934;28;20074;-83
2020/12/08 04:15:14;;;;;;;25.55;16.58;;;;;;;;;;5080630;28;20088;-84
2020/12/08 04:17:43;;;;;;;29.38;17.63;;;;;;;;;;5099558;28;20298;-84
2020/12/08 04:20:20;;;;;;;27.52;18.60;;;;;;;;;;5082105;28;20040;-83
2020/12/08 04:22:47;;;;;;;27.63;18.13;;;;;;;;;;5096930;28;20300;-84
2020/12/08 04:25:17;;;;;;;25.50;17.10;;;;;;;;;;5097333;28;20044;-84
2020/12/08 04:27:50;;;;;;;27.88;18.35;;;;;;;;;;5096961;28;20052;-84
2020/12/08 04:30:19;;;;;;;29.38;18.05;;;;;;;;;;5097406;28;20062;-84
2020/12/08 04:32:45;;;;;;;29.83;18.38;;;;;;;;;;5077143;28;20052;-84
2020/12/08 04:35:16;;;;;;;26.05;16.73;;;;;;;;;;5094548;28;20040;-83
2020/12/08 04:37:46;;;;;;;25.38;17.00;;;;;;;;;;5093403;28;20131;-84
2020/12/08 04:40:15;;;;;;;30.02;18.17;;;;;;;;;;5093754;28;20040;-84
2020/12/08 04:42:46;;;;;;;28.25;17.42;;;;;;;;;;5075642;28;20048;-84
2020/12/08 04:45:22;;;;;;;27.42;18.90;;;;;;;;;;5094574;28;20055;-83
2020/12/08 04:47:51;;;;;;;29.52;19.17;;;;;;;;;;5075958;28;20062;-84
2020/12/08 04:50:24;;;;;;;29.80;18.02;;;;;;;;;;5076014;28;20401;-84
2020/12/08 04:52:50;;;;;;;32.60;17.98;;;;;;;;;;5071782;28;20047;-83
2020/12/08 04:55:23;;;;;;;28.80;17.98;;;;;;;;;;5074587;28;20105;-83
2020/12/08 04:57:49;;;;;;;29.60;16.92;;;;;;;;;;5073301;28;20220;-83
2020/12/08 05:00:22;;;;;;;28.27;16.55;;;;;;;;;;5091168;28;20040;-83
2020/12/08 05:02:56;;;;;;;31.48;18.73;;;;;;;;;;5090629;28;20397;-83
2020/12/08 05:05:24;;;;;;;31.48;19.17;;;;;;;;;;5072514;28;20056;-83
2020/12/08 05:07:51;;;;;;;30.48;19.80;;;;;;;;;;5091938;28;20366;-82
2020/12/08 05:10:25;;;;;;;32.63;18.58;;;;;;;;;;5074492;28;20142;-82
2020/12/08 05:12:54;;;;;;;29.80;18.13;;;;;;;;;;5074464;28;20048;-82
2020/12/08 05:15:21;;;;;;;35.47;19.67;;;;;;;;;;5074450;28;20047;-82
2020/12/08 05:17:49;;;;;;;30.52;18.80;;;;;;;;;;5091532;28;20155;-82
2020/12/08 05:20:19;;;;;;;34.20;19.45;;;;;;;;;;5069528;28;20045;-82
2020/12/08 05:22:55;;;;;;;29.38;19.05;;;;;;;;;;5070526;28;20260;-82
2020/12/08 05:25:26;;;;;;;29.27;18.60;;;;;;;;;;5072494;28;20049;-82
2020/12/08 05:27:57;;;;;;;31.00;18.95;;;;;;;;;;5071627;28;20289;-83
2020/12/08 05:30:24;;;;;;;34.60;20.40;;;;;;;;;;5053328;28;20440;-83
2020/12/08 05:32:54;;;;;;;31.20;17.95;;;;;;;;;;5054151;28;20060;-83
2020/12/08 05:35:23;;;;;;;29.70;18.70;;;;;;;;;;5070764;28;20321;-83
2020/12/08 05:37:55;;;;;;;30.95;18.30;;;;;;;;;;5063266;28;20405;-83
2020/12/08 05:40:23;;;;;;;31.52;18.80;;;;;;;;;;5075325;28;20054;-83
2020/12/08 05:42:53;;;;;;;27.85;17.98;;;;;;;;;;5091159;28;20055;-83
2020/12/08 05:45:20;;;;;;;27.67;17.48;;;;;;;;;;5090328;28;20239;-83
2020/12/08 05:47:56;;;;;;;30.77;18.92;;;;;;;;;;5093994;28;20050;-83
2020/12/08 05:50:26;;;;;;;29.50;19.27;;;;;;;;;;5074661;28;20067;-83
2020/12/08 05:53:02;;;;;;;30.80;19.23;;;;;;;;;;5075538;28;20055;-83
2020/12/08 05:55:31;;;;;;;34.25;18.85;;;;;;;;;;5090607;28;20146;-83
2020/12/08 05:58:05;;;;;;;31.05;17.83;;;;;;;;;;5074745;28;20060;-83
2020/12/08 06:00:33;;;;;;;32.63;18.45;;;;;;;;;;5084304;28;20285;-83
2020/12/08 06:03:08;;;;;;;30.98;18.15;;;;;;;;;;5055557;28;20051;-83
2020/12/08 06:05:35;;;;;;;30.10;18.07;;;;;;;;;;5056283;28;20048;-83
2020/12/08 06:08:20;;;;;;;29.63;17.85;;;;;;;;;;5086010;28;20246;-83
2020/12/08 06:10:53;;;;;;;28.48;17.83;;;;;;;;;;5094347;28;20106;-83
2020/12/08 06:13:22;;;;;;;27.63;17.27;;;;;;;;;;5095384;28;20043;-83
2020/12/08 06:15:48;;;;;;;29.48;17.52;;;;;;;;;;5096834;28;20048;-82
2020/12/08 06:18:26;;;;;;;41.38;23.45;;;;;;;;;;5109922;28;20074;-84
2020/12/08 06:20:54;;;;;;;34.78;20.38;;;;;;;;;;5092981;28;20103;-83
2020/12/08 06:23:24;;;;;;;31.27;18.23;;;;;;;;;;5109708;28;20048;-83
2020/12/08 06:26:03;;;;;;;32.22;19.00;;;;;;;;;;5079599;28;20063;-83
2020/12/08 06:28:30;;;;;;;29.52;18.23;;;;;;;;;;5104332;28;20328;-83
2020/12/08 06:31:02;;;;;;;34.40;19.50;;;;;;;;;;5080526;28;20160;-83
2020/12/08 06:33:30;;;;;;;29.20;17.52;;;;;;;;;;5098641;28;20032;-83
2020/12/08 06:35:59;;;;;;;30.25;18.63;;;;;;;;;;5081758;28;20071;-84
2020/12/08 06:38:25;;;;;;;30.63;18.95;;;;;;;;;;5059571;28;20048;-84
2020/12/08 06:40:53;;;;;;;32.22;19.40;;;;;;;;;;5072521;28;20091;-84
2020/12/08 06:43:20;;;;;;;30.58;18.65;;;;;;;;;;5070369;28;20040;-83
2020/12/08 06:45:48;;;;;;;31.55;18.92;;;;;;;;;;5072603;28;20048;-83
2020/12/08 06:48:18;;;;;;;35.17;20.77;;;;;;;;;;5092977;28;20067;-83
2020/12/08 06:50:44;;;;;;;32.03;20.05;;;;;;;;;;5093929;28;20164;-83
2020/12/08 06:53:10;;;;;;;35.17;20.73;;;;;;;;;;5091330;28;20079;-83
2020/12/08 06:55:45;;;;;;;30.38;20.13;;;;;;;;;;5069008;28;20040;-83
2020/12/08 06:58:14;;;;;;;37.45;21.55;;;;;;;;;;5060696;28;20439;-83
2020/12/08 07:00:41;;;;;;;35.08;20.40;;;;;;;;;;5071972;28;20203;-83
2020/12/08 07:03:08;;;;;;;33.08;20.42;;;;;;;;;;5055805;28;20095;-83
2020/12/08 07:05:35;;;;;;;31.35;19.45;;;;;;;;;;5053871;28;20052;-83
2020/12/08 07:08:05;;;;;;;28.63;18.63;;;;;;;;;;5085627;28;20048;-83
2020/12/08 07:10:42;;;;;;;34.15;20.00;;;;;;;;;;5067080;28;20050;-83
2020/12/08 07:13:16;;;;;;;32.83;20.25;;;;;;;;;;5073523;28;20048;-83
2020/12/08 07:15:44;;;;;;;33.35;20.33;;;;;;;;;;5056026;28;20343;-83
2020/12/08 07:18:12;;;;;;;31.40;20.13;;;;;;;;;;5053648;28;20153;-83
2020/12/08 07:20:45;;;;;;;29.95;19.00;;;;;;;;;;5056301;28;20044;-84
2020/12/08 07:23:14;;;;;;;31.63;19.67;;;;;;;;;;5087483;28;20067;-82
2020/12/08 07:25:44;;;;;;;33.30;18.95;;;;;;;;;;5057556;28;20127;-82
2020/12/08 07:28:11;;;;;;;33.72;19.95;;;;;;;;;;5076462;28;20046;-82
2020/12/08 07:30:38;;;;;;;31.95;20.40;;;;;;;;;;5073320;28;20362;-83
2020/12/08 07:33:11;;;;;;;37.92;23.40;;;;;;;;;;5073099;28;20378;-83
2020/12/08 07:35:43;;;;;;;32.75;20.10;;;;;;;;;;5089018;28;20040;-83
2020/12/08 07:38:09;;;;;;;32.25;18.77;;;;;;;;;;5070063;28;20115;-84
2020/12/08 07:40:41;;;;;;;31.05;19.02;;;;;;;;;;5085102;28;20154;-83
2020/12/08 07:43:11;;;;;;;31.88;17.98;;;;;;;;;;5055707;28;20036;-81
2020/12/08 07:45:43;;;;;;;31.52;19.00;;;;;;;;;;5078843;28;20053;-82
2020/12/08 07:48:18;;;;;;;29.83;18.48;;;;;;;;;;5082910;28;20048;-82
2020/12/08 07:50:46;;;;;;;30.45;18.80;;;;;;;;;;5081867;28;20048;-82
2020/12/08 07:53:16;;;;;;;30.42;18.38;;;;;;;;;;5070156;28;20052;-82
2020/12/08 07:55:45;;;;;;;28.58;17.45;;;;;;;;;;5056455;28;20141;-82
2020/12/08 07:58:13;;;;;;;29.35;18.42;;;;;;;;;;5053407;28;20143;-83
2020/12/08 08:00:45;;;;;;;32.10;19.15;;;;;;;;;;5057205;28;20044;-82
2020/12/08 08:03:12;;;;;;;29.13;17.55;;;;;;;;;;5060657;28;20052;-82
2020/12/08 08:05:40;;;;;;;29.58;18.92;;;;;;;;;;5057547;28;20396;-85
2020/12/08 08:08:10;;;;;;;29.15;18.67;;;;;;;;;;5055588;28;20284;-84
2020/12/08 08:10:36;;;;;;;31.35;20.02;;;;;;;;;;5057288;28;20209;-83
2020/12/08 08:13:05;;;;;;;32.25;20.38;;;;;;;;;;5058539;28;20068;-83
2020/12/08 08:15:36;;;;;;;32.33;20.45;;;;;;;;;;5057896;28;20294;-84
2020/12/08 08:18:06;;;;;;;33.70;18.77;;;;;;;;;;5055886;28;20110;-84
2020/12/08 08:20:34;;;;;;;30.25;19.70;;;;;;;;;;5061584;28;20098;-84
2020/12/08 08:23:01;;;;;;;32.15;19.20;;;;;;;;;;5058024;28;20540;-84
2020/12/08 08:25:36;;;;;;;34.08;18.77;;;;;;;;;;5056922;28;20048;-83
2020/12/08 08:28:03;;;;;;;29.38;18.92;;;;;;;;;;5060851;28;20113;-84
2020/12/08 08:30:35;;;;;;;32.22;18.98;;;;;;;;;;5059904;28;20234;-83
2020/12/08 08:33:02;;;;;;;30.70;19.42;;;;;;;;;;5063283;28;20098;-83
2020/12/08 08:35:35;;;;;;;28.35;18.35;;;;;;;;;;5060751;28;20057;-83
2020/12/08 08:38:05;;;;;;;28.10;18.35;;;;;;;;;;5056343;28;20151;-83
2020/12/08 08:40:34;;;;;;;29.30;18.58;;;;;;;;;;5057916;28;20052;-83
2020/12/08 08:43:10;;;;;;;29.83;19.05;;;;;;;;;;5052650;28;20080;-83
2020/12/08 08:45:38;;;;;;;30.00;19.00;;;;;;;;;;5053817;28;20060;-82
2020/12/08 08:48:09;;;;;;;33.08;20.02;;;;;;;;;;5061368;28;20053;-85
2020/12/08 08:50:44;;;;;;;30.70;19.15;;;;;;;;;;5056870;28;20048;-82
2020/12/08 08:53:12;;;;;;;29.35;18.70;;;;;;;;;;5055848;28;20078;-83
2020/12/08 08:55:42;;;;;;;29.70;18.08;;;;;;;;;;5057330;28;20046;-83
2020/12/08 08:58:15;;;;;;;33.47;19.30;;;;;;;;;;5058466;28;20292;-83
2020/12/08 09:00:45;;;;;;;32.85;19.90;;;;;;;;;;5058557;28;20271;-83
2020/12/08 09:03:15;;;;;;;28.70;18.85;;;;;;;;;;5053673;28;20052;-83
2020/12/08 09:05:44;;;;;;;28.08;18.77;;;;;;;;;;5056488;28;20425;-83
2020/12/08 09:08:16;;;;;;;28.60;18.20;;;;;;;;;;5051680;28;20065;-83
2020/12/08 09:10:49;;;;;;;34.33;18.83;;;;;;;;;;5071752;28;20280;-84
2020/12/08 09:13:20;;;;;;;33.25;19.95;;;;;;;;;;5084025;28;20048;-83
2020/12/08 09:15:47;;;;;;;34.08;21.20;;;;;;;;;;5067106;28;20423;-83
2020/12/08 09:18:14;;;;;;;27.40;17.58;;;;;;;;;;5066394;28;20071;-83
2020/12/08 09:20:43;;;;;;;32.33;19.15;;;;;;;;;;5063456;28;20052;-83
2020/12/08 09:23:11;;;;;;;26.75;17.38;;;;;;;;;;5069169;28;20272;-83
2020/12/08 09:25:42;;;;;;;26.63;17.92;;;;;;;;;;5071819;28;20106;-83
2020/12/08 09:28:09;;;;;;;26.77;17.00;;;;;;;;;;5062863;28;20140;-83
2020/12/08 09:30:40;;;;;;;29.70;17.88;;;;;;;;;;5061423;28;20165;-83
2020/12/08 09:33:07;;;;;;;22.52;15.95;;;;;;;;;;5050021;28;20474;-83
2020/12/08 09:35:38;;;;;;;21.15;14.35;;;;;;;;;;5063895;28;20152;-83
2020/12/08 09:38:07;;;;;;;26.98;15.35;;;;;;;;;;5069860;28;20119;-83
2020/12/08 09:40:37;;;;;;;27.38;17.70;;;;;;;;;;5057211;28;20040;-83
2020/12/08 09:43:10;;;;;;;27.05;15.32;;;;;;;;;;5071963;28;20344;-83
2020/12/08 09:45:38;;;;;;;26.50;16.10;;;;;;;;;;5087107;28;20044;-84
2020/12/08 09:48:05;;;;;;;25.35;15.90;;;;;;;;;;5087625;28;20204;-83
2020/12/08 09:50:45;;;;;;;22.52;15.40;;;;;;;;;;5077554;28;20098;-82
2020/12/08 09:53:13;;;;;;;24.77;15.52;;;;;;;;;;5088066;28;20036;-84
2020/12/08 09:55:43;;;;;;;26.75;16.95;;;;;;;;;;5068356;28;20053;-83
2020/12/08 09:58:14;;;;;;;23.73;15.80;;;;;;;;;;5069521;28;20428;-83
2020/12/08 10:00:43;;;;;;;26.75;16.90;;;;;;;;;;5073109;28;20078;-83
2020/12/08 10:03:10;;;;;;;24.45;15.80;;;;;;;;;;5103226;28;20108;-83
2020/12/08 10:05:41;;;;;;;25.38;15.43;;;;;;;;;;5109010;28;20087;-83
2020/12/08 10:08:09;;;;;;;22.75;15.00;;;;;;;;;;5072191;28;20407;-83
2020/12/08 10:10:39;;;;;;;28.52;17.13;;;;;;;;;;5059340;28;20052;-83
2020/12/08 10:13:16;;;;;;;24.55;16.92;;;;;;;;;;5094420;28;20066;-83
2020/12/08 10:15:50;;;;;;;27.15;16.48;;;;;;;;;;5076438;28;20131;-83
2020/12/08 10:18:26;;;;;;;28.52;17.23;;;;;;;;;;5075484;28;20054;-83
2020/12/08 10:21:23;;;;;;;26.63;16.83;;;;;;;;;;5092691;28;20174;-83
2020/12/08 10:23:52;;;;;;;25.52;16.27;;;;;;;;;;5084209;28;20078;-83
2020/12/08 10:26:20;;;;;;;26.42;17.55;;;;;;;;;;5095288;28;20066;-83
2020/12/08 10:28:53;;;;;;;25.38;16.90;;;;;;;;;;5064628;28;20044;-84
2020/12/08 10:31:20;;;;;;;24.40;16.05;;;;;;;;;;5069742;28;20044;-82
2020/12/08 10:33:51;;;;;;;26.58;17.63;;;;;;;;;;5081927;28;20048;-82
2020/12/08 10:36:17;;;;;;;28.88;16.33;;;;;;;;;;5072858;28;20056;-83
2020/12/08 10:38:45;;;;;;;28.80;16.60;;;;;;;;;;5073039;28;20048;-82
2020/12/08 10:41:11;;;;;;;25.55;16.45;;;;;;;;;;5090697;28;20176;-82
2020/12/08 10:43:39;;;;;;;28.05;16.65;;;;;;;;;;5067149;28;20201;-82
2020/12/08 10:46:08;;;;;;;29.80;17.80;;;;;;;;;;5075537;28;20102;-82
2020/12/08 10:48:36;;;;;;;31.90;17.55;;;;;;;;;;5063583;28;20109;-83
2020/12/08 10:51:08;;;;;;;25.77;16.55;;;;;;;;;;5074271;28;20249;-84
2020/12/08 10:53:37;;;;;;;24.08;15.98;;;;;;;;;;5066112;28;20139;-85
2020/12/08 10:56:16;;;;;;;24.77;15.82;;;;;;;;;;5065531;28;20047;-84
2020/12/08 10:59:01;;;;;;;29.98;16.40;;;;;;;;;;5065907;28;20040;-84
2020/12/08 11:01:35;;;;;;;24.60;16.45;;;;;;;;;;5080832;28;20055;-83
2020/12/08 11:04:06;;;;;;;26.83;16.77;;;;;;;;;;5097265;28;20071;-83
2020/12/08 11:06:37;;;;;;;27.25;17.17;;;;;;;;;;5097114;28;20105;-85
2020/12/08 11:09:06;;;;;;;26.30;16.55;;;;;;;;;;5098700;28;20477;-83
2020/12/08 11:11:41;;;;;;;23.13;15.85;;;;;;;;;;5066375;28;20068;-83
2020/12/08 11:14:17;;;;;;;24.73;16.20;;;;;;;;;;5009020;28;20129;-83
2020/12/08 11:16:57;;;;;;;25.27;16.52;;;;;;;;;;5060534;28;20048;-84
2020/12/08 11:19:39;;;;;;;24.80;17.02;;;;;;;;;;5067757;28;20450;-82
2020/12/08 11:22:14;;;;;;;23.83;15.65;;;;;;;;;;5080459;28;20372;-83
2020/12/08 11:24:43;;;;;;;27.75;15.43;;;;;;;;;;5079557;28;20081;-83
2020/12/08 11:27:17;;;;;;;25.40;14.65;;;;;;;;;;5078868;28;20109;-83
2020/12/08 11:29:45;;;;;;;21.90;15.25;;;;;;;;;;5091325;28;20222;-83
2020/12/08 11:32:14;;;;;;;22.30;15.35;;;;;;;;;;5071093;28;20056;-83
2020/12/08 11:34:46;;;;;;;24.33;15.73;;;;;;;;;;5096530;28;20048;-82
2020/12/08 11:37:15;;;;;;;29.60;15.93;;;;;;;;;;5064624;28;20513;-83
2020/12/08 11:39:59;;;;;;;22.33;15.77;;;;;;;;;;5081902;28;20040;-82
2020/12/08 11:42:42;;;;;;;19.80;12.75;;;;;;;;;;5100923;28;20052;-83
2020/12/08 11:45:19;;;;;;;22.23;14.15;;;;;;;;;;5098101;28;20125;-82
2020/12/08 11:47:46;;;;;;;20.13;12.45;;;;;;;;;;5076157;28;20044;-83
2020/12/08 11:50:20;;;;;;;20.27;13.23;;;;;;;;;;5075418;28;20058;-83
2020/12/08 11:52:50;;;;;;;19.80;12.30;;;;;;;;;;5095278;28;20044;-83
2020/12/08 11:55:23;;;;;;;20.83;13.70;;;;;;;;;;5060417;28;20060;-83
2020/12/08 11:57:56;;;;;;;19.80;12.77;;;;;;;;;;5055396;28;20410;-84
2020/12/08 12:00:24;;;;;;;18.33;13.05;;;;;;;;;;5060913;28;20067;-83
2020/12/08 12:02:54;;;;;;;17.42;11.63;;;;;;;;;;5075627;28;20053;-83
2020/12/08 12:05:32;;;;;;;19.52;12.43;;;;;;;;;;5079816;28;20052;-86
2020/12/08 12:08:02;;;;;;;20.33;12.38;;;;;;;;;;5086762;28;20036;-84
2020/12/08 12:10:51;;;;;;;18.60;12.35;;;;;;;;;;5082194;28;20080;-85
2020/12/08 12:13:25;;;;;;;18.80;13.73;;;;;;;;;;5076067;28;20052;-83
2020/12/08 12:15:57;;;;;;;20.90;13.30;;;;;;;;;;5054107;28;20049;-83
2020/12/08 12:18:25;;;;;;;19.00;12.32;;;;;;;;;;5056219;28;20059;-83
2020/12/08 12:20:52;;;;;;;16.88;11.60;;;;;;;;;;5057654;28;20136;-82
2020/12/08 12:23:21;;;;;;;18.00;11.70;;;;;;;;;;5066505;28;20088;-82
2020/12/08 12:26:08;;;;;;;18.95;12.77;;;;;;;;;;5075067;28;20195;-83
2020/12/08 12:28:40;;;;;;;16.98;11.77;;;;;;;;;;5074334;28;20254;-83
2020/12/08 12:31:15;;;;;;;16.38;12.02;;;;;;;;;;5071303;28;20052;-85
2020/12/08 12:33:43;;;;;;;19.13;12.13;;;;;;;;;;5072975;28;20370;-83
2020/12/08 12:36:13;;;;;;;17.40;11.40;;;;;;;;;;5074415;28;20072;-84
2020/12/08 12:38:44;;;;;;;19.42;11.55;;;;;;;;;;5075853;28;20052;-84
2020/12/08 12:41:13;;;;;;;18.45;12.05;;;;;;;;;;5054246;28;20329;-84
2020/12/08 12:43:41;;;;;;;17.85;12.13;;;;;;;;;;5062899;28;20139;-83
2020/12/08 12:46:15;;;;;;;18.90;12.70;;;;;;;;;;5068969;28;20056;-85
2020/12/08 12:48:42;;;;;;;16.33;10.75;;;;;;;;;;5070242;28;20155;-83
2020/12/08 12:51:27;;;;;;;16.60;11.73;;;;;;;;;;5068134;28;20184;-83
2020/12/08 12:53:55;;;;;;;19.20;12.82;;;;;;;;;;5063000;28;20049;-83
2020/12/08 12:56:25;;;;;;;19.33;12.77;;;;;;;;;;5071679;28;20041;-84
2020/12/08 12:58:55;;;;;;;18.90;12.85;;;;;;;;;;5052802;28;20104;-85
2020/12/08 13:01:22;;;;;;;21.25;13.30;;;;;;;;;;5052605;28;20102;-84
2020/12/08 13:03:51;;;;;;;20.42;13.77;;;;;;;;;;5052935;28;20130;-83
2020/12/08 13:06:19;;;;;;;19.40;13.45;;;;;;;;;;5029635;28;20410;-84
2020/12/08 13:08:51;;;;;;;25.55;14.13;;;;;;;;;;5048168;28;20246;-85
2020/12/08 13:11:25;;;;;;;21.73;13.40;;;;;;;;;;5031508;28;20126;-85
2020/12/08 13:13:54;;;;;;;20.98;14.38;;;;;;;;;;5034225;28;20045;-83
2020/12/08 13:16:30;;;;;;;19.98;13.18;;;;;;;;;;5045864;28;20110;-83
2020/12/08 13:19:00;;;;;;;21.75;13.10;;;;;;;;;;5057331;28;20141;-84
2020/12/08 13:21:28;;;;;;;23.33;14.15;;;;;;;;;;5068291;28;20226;-83
2020/12/08 13:23:57;;;;;;;18.52;11.50;;;;;;;;;;5056625;28;20230;-83
2020/12/08 13:26:25;;;;;;;22.83;12.75;;;;;;;;;;5034368;28;20402;-83
2020/12/08 13:28:55;;;;;;;18.88;11.85;;;;;;;;;;5032699;28;20049;-83
2020/12/08 13:31:27;;;;;;;19.45;13.20;;;;;;;;;;5053287;28;20105;-84
2020/12/08 13:34:00;;;;;;;20.55;12.85;;;;;;;;;;5058253;28;20060;-84
2020/12/08 13:36:40;;;;;;;20.40;12.05;;;;;;;;;;5041000;28;20045;-85
2020/12/08 13:39:21;;;;;;;19.25;12.40;;;;;;;;;;5042030;28;20340;-82
2020/12/08 13:42:12;;;;;;;19.83;12.95;;;;;;;;;;5032262;28;20036;-83
2020/12/08 13:44:47;;;;;;;21.40;12.63;;;;;;;;;;5027686;28;20037;-83
2020/12/08 13:47:17;;;;;;;20.85;14.10;;;;;;;;;;5042398;28;20301;-83
2020/12/08 13:49:45;;;;;;;22.42;13.65;;;;;;;;;;5031212;28;20088;-82
2020/12/08 13:52:15;;;;;;;21.83;14.05;;;;;;;;;;5044033;28;20440;-83
2020/12/08 13:54:44;;;;;;;24.65;15.07;;;;;;;;;;5049110;28;20242;-83
2020/12/08 13:57:11;;;;;;;20.95;13.57;;;;;;;;;;5055411;28;20152;-84
2020/12/08 13:59:41;;;;;;;26.45;15.63;;;;;;;;;;5071691;28;20086;-84
2020/12/08 14:02:18;;;;;;;27.02;15.45;;;;;;;;;;5073045;28;20332;-83
2020/12/08 14:05:00;;;;;;;28.90;15.02;;;;;;;;;;5067045;28;20139;-83
2020/12/08 14:07:27;;;;;;;24.77;15.85;;;;;;;;;;5063730;28;20424;-84
2020/12/08 14:10:00;;;;;;;27.33;16.65;;;;;;;;;;5049832;28;20230;-84
2020/12/08 14:12:27;;;;;;;26.70;15.55;;;;;;;;;;5060272;28;20095;-84
2020/12/08 14:14:58;;;;;;;28.38;17.42;;;;;;;;;;5054386;28;20066;-84
2020/12/08 14:17:42;;;;;;;24.45;15.32;;;;;;;;;;5058603;28;20113;-84
2020/12/08 14:20:10;;;;;;;25.08;15.45;;;;;;;;;;5064583;28;20049;-83
2020/12/08 14:22:38;;;;;;;23.45;15.35;;;;;;;;;;5067859;28;20056;-84
2020/12/08 14:25:07;;;;;;;27.60;16.30;;;;;;;;;;5075779;28;20261;-82
2020/12/08 14:27:39;;;;;;;28.85;17.65;;;;;;;;;;5074213;28;20079;-83
2020/12/08 14:30:10;;;;;;;31.15;18.38;;;;;;;;;;5066968;28;20095;-83
2020/12/08 14:32:42;;;;;;;26.70;17.02;;;;;;;;;;5080725;28;20143;-85
2020/12/08 14:35:12;;;;;;;28.30;17.30;;;;;;;;;;5068339;28;20056;-84
2020/12/08 14:37:44;;;;;;;30.00;18.10;;;;;;;;;;5056986;28;20049;-83